AUA102 LOWI-LOWW
Flight info
| Callsign | AUA102 |
|---|---|
| Flight time | 0h 51m |
| Altitude | 29000 |
| Route | RTT DCT NEMAL NEMAL2W |
| Aircraft | A320/M-SDE3FGHIRWY/LB1 |
Departure
| Time | 2026-04-22 18:22 |
|---|---|
| Airport | Innsbruck Airport (LOWI) |
Arrival
| Time | 2026-04-22 19:13 |
|---|---|
| Airport | Vienna International Airport (LOWW) |
| Time | Latitude | Longitude | Altitude | Speed | Heading |
|---|---|---|---|---|---|
| 2026-04-22 17:55 | 47.25801 | 11.34872 | 1896 ft | 0 kts | 171° |
| 2026-04-22 17:57 | 47.25789 | 11.34752 | 1898 ft | 0 kts | 172° |
| 2026-04-22 18:09 | 47.25798 | 11.34750 | 1889 ft | 4 kts | 172° |
| 2026-04-22 18:10 | 47.25821 | 11.34745 | 1894 ft | 3 kts | 172° |
| 2026-04-22 18:10 | 47.25842 | 11.34749 | 1890 ft | 4 kts | 235° |
| 2026-04-22 18:10 | 47.25850 | 11.34783 | 1892 ft | 3 kts | 261° |
| 2026-04-22 18:10 | 47.25853 | 11.34811 | 1897 ft | 0 kts | 261° |
| 2026-04-22 18:13 | 47.25852 | 11.34803 | 1898 ft | 3 kts | 261° |
| 2026-04-22 18:13 | 47.25844 | 11.34734 | 1894 ft | 10 kts | 260° |
| 2026-04-22 18:13 | 47.25831 | 11.34619 | 1901 ft | 11 kts | 261° |
| 2026-04-22 18:13 | 47.25822 | 11.34537 | 1904 ft | 7 kts | 261° |
| 2026-04-22 18:14 | 47.25814 | 11.34462 | 1904 ft | 10 kts | 261° |
| 2026-04-22 18:14 | 47.25798 | 11.34317 | 1904 ft | 16 kts | 261° |
| 2026-04-22 18:14 | 47.25784 | 11.34185 | 1898 ft | 11 kts | 261° |
| 2026-04-22 18:14 | 47.25773 | 11.34077 | 1901 ft | 10 kts | 262° |
| 2026-04-22 18:15 | 47.25776 | 11.33979 | 1904 ft | 9 kts | 283° |
| 2026-04-22 18:15 | 47.25803 | 11.33899 | 1898 ft | 7 kts | 301° |
| 2026-04-22 18:15 | 47.25819 | 11.33861 | 1890 ft | 0 kts | 303° |
| 2026-04-22 18:19 | 47.25846 | 11.33807 | 1896 ft | 9 kts | 306° |
| 2026-04-22 18:19 | 47.25881 | 11.33734 | 1901 ft | 8 kts | 306° |
| 2026-04-22 18:20 | 47.25921 | 11.33686 | 1891 ft | 6 kts | 346° |
| 2026-04-22 18:20 | 47.25946 | 11.33712 | 1890 ft | 4 kts | 65° |
| 2026-04-22 18:20 | 47.25948 | 11.33726 | 1890 ft | 0 kts | 78° |
| 2026-04-22 18:21 | 47.25951 | 11.33752 | 1893 ft | 14 kts | 80° |
| 2026-04-22 18:21 | 47.26013 | 11.34330 | 1897 ft | 96 kts | 81° |
| 2026-04-22 18:22 | 47.26149 | 11.35550 | 2197 ft | 130 kts | 80° |
| 2026-04-22 18:22 | 47.26323 | 11.36875 | 2908 ft | 135 kts | 77° |
| 2026-04-22 18:22 | 47.26519 | 11.38296 | 3418 ft | 151 kts | 78° |
| 2026-04-22 18:22 | 47.26732 | 11.39921 | 3755 ft | 172 kts | 78° |
| 2026-04-22 18:23 | 47.26963 | 11.41713 | 4158 ft | 182 kts | 79° |
| 2026-04-22 18:23 | 47.27196 | 11.43547 | 4690 ft | 182 kts | 79° |
| 2026-04-22 18:23 | 47.27481 | 11.45365 | 5281 ft | 183 kts | 75° |
| 2026-04-22 18:24 | 47.28178 | 11.49025 | 6394 ft | 187 kts | 73° |
| 2026-04-22 18:24 | 47.28534 | 11.50876 | 6942 ft | 188 kts | 73° |
| 2026-04-22 18:24 | 47.29247 | 11.54610 | 7939 ft | 193 kts | 73° |
| 2026-04-22 18:25 | 47.29610 | 11.56521 | 8544 ft | 193 kts | 73° |
| 2026-04-22 18:25 | 47.29971 | 11.58433 | 9167 ft | 194 kts | 73° |
| 2026-04-22 18:25 | 47.30332 | 11.60360 | 9778 ft | 197 kts | 73° |
| 2026-04-22 18:26 | 47.31097 | 11.64337 | 11139 ft | 204 kts | 66° |
| 2026-04-22 18:26 | 47.31814 | 11.66195 | 11634 ft | 219 kts | 53° |
| 2026-04-22 18:26 | 47.32742 | 11.68133 | 12000 ft | 243 kts | 53° |
| 2026-04-22 18:26 | 47.33766 | 11.70267 | 12399 ft | 267 kts | 53° |
| 2026-04-22 18:27 | 47.34886 | 11.72603 | 12752 ft | 291 kts | 53° |
| 2026-04-22 18:27 | 47.36096 | 11.75141 | 13086 ft | 313 kts | 53° |
| 2026-04-22 18:27 | 47.37367 | 11.77824 | 13776 ft | 322 kts | 53° |
| 2026-04-22 18:27 | 47.38652 | 11.80552 | 14581 ft | 326 kts | 53° |
| 2026-04-22 18:28 | 47.39940 | 11.83326 | 15344 ft | 330 kts | 56° |
| 2026-04-22 18:28 | 47.40826 | 11.86482 | 16057 ft | 338 kts | 73° |
| 2026-04-22 18:28 | 47.41370 | 11.89876 | 16833 ft | 342 kts | 74° |
| 2026-04-22 18:28 | 47.41904 | 11.93314 | 17586 ft | 346 kts | 74° |
| 2026-04-22 18:29 | 47.42440 | 11.96807 | 18312 ft | 350 kts | 74° |
| 2026-04-22 18:29 | 47.42980 | 12.00325 | 18966 ft | 354 kts | 74° |
| 2026-04-22 18:29 | 47.43530 | 12.03890 | 19591 ft | 358 kts | 74° |
| 2026-04-22 18:29 | 47.44085 | 12.07489 | 20206 ft | 362 kts | 74° |
| 2026-04-22 18:30 | 47.44645 | 12.11124 | 20830 ft | 365 kts | 74° |
| 2026-04-22 18:30 | 47.45785 | 12.18517 | 21698 ft | 372 kts | 74° |
| 2026-04-22 18:30 | 47.46361 | 12.22269 | 22250 ft | 376 kts | 73° |
| 2026-04-22 18:31 | 47.46745 | 12.24774 | 22621 ft | 378 kts | 74° |
| 2026-04-22 18:31 | 47.47328 | 12.28577 | 23194 ft | 382 kts | 73° |
| 2026-04-22 18:31 | 47.47921 | 12.32474 | 23762 ft | 386 kts | 74° |
| 2026-04-22 18:31 | 47.48698 | 12.37631 | 24383 ft | 390 kts | 74° |
| 2026-04-22 18:32 | 47.49097 | 12.40287 | 24684 ft | 392 kts | 74° |
| 2026-04-22 18:32 | 47.49684 | 12.44184 | 25155 ft | 395 kts | 73° |
| 2026-04-22 18:32 | 47.50285 | 12.48167 | 25621 ft | 399 kts | 73° |
| 2026-04-22 18:32 | 47.50890 | 12.52185 | 26046 ft | 401 kts | 73° |
| 2026-04-22 18:33 | 47.51497 | 12.56232 | 26436 ft | 405 kts | 73° |
| 2026-04-22 18:33 | 47.52111 | 12.60308 | 26906 ft | 407 kts | 73° |
| 2026-04-22 18:33 | 47.52727 | 12.64413 | 27366 ft | 409 kts | 74° |
| 2026-04-22 18:33 | 47.53348 | 12.68523 | 27880 ft | 409 kts | 74° |
| 2026-04-22 18:34 | 47.53965 | 12.72639 | 28322 ft | 411 kts | 75° |
| 2026-04-22 18:34 | 47.54578 | 12.76784 | 28725 ft | 414 kts | 75° |
| 2026-04-22 18:34 | 47.55190 | 12.80962 | 29118 ft | 417 kts | 75° |
| 2026-04-22 18:34 | 47.55803 | 12.85166 | 29275 ft | 415 kts | 75° |
| 2026-04-22 18:35 | 47.56397 | 12.89267 | 29285 ft | 401 kts | 75° |
| 2026-04-22 18:35 | 47.57564 | 12.97256 | 29285 ft | 395 kts | 75° |
| 2026-04-22 18:36 | 47.58726 | 13.05190 | 29282 ft | 394 kts | 75° |
| 2026-04-22 18:36 | 47.59878 | 13.13121 | 29292 ft | 392 kts | 75° |
| 2026-04-22 18:37 | 47.61017 | 13.21008 | 29298 ft | 391 kts | 75° |
| 2026-04-22 18:37 | 47.62146 | 13.28893 | 29294 ft | 391 kts | 75° |
| 2026-04-22 18:38 | 47.63266 | 13.36772 | 29286 ft | 391 kts | 75° |
| 2026-04-22 18:38 | 47.64386 | 13.44650 | 29290 ft | 391 kts | 75° |
| 2026-04-22 18:39 | 47.66047 | 13.56429 | 29333 ft | 387 kts | 75° |
| 2026-04-22 18:39 | 47.67135 | 13.64231 | 29325 ft | 385 kts | 75° |
| 2026-04-22 18:40 | 47.68217 | 13.71986 | 29315 ft | 384 kts | 75° |
| 2026-04-22 18:40 | 47.69287 | 13.79727 | 29294 ft | 382 kts | 76° |
| 2026-04-22 18:41 | 47.70352 | 13.87450 | 29292 ft | 382 kts | 76° |
| 2026-04-22 18:41 | 47.71417 | 13.95172 | 29281 ft | 382 kts | 76° |
| 2026-04-22 18:42 | 47.72472 | 14.02904 | 29292 ft | 381 kts | 76° |
| 2026-04-22 18:42 | 47.73516 | 14.10616 | 29285 ft | 380 kts | 76° |
| 2026-04-22 18:43 | 47.74561 | 14.18323 | 29282 ft | 380 kts | 76° |
| 2026-04-22 18:43 | 47.75589 | 14.25995 | 28609 ft | 376 kts | 76° |
| 2026-04-22 18:44 | 47.76092 | 14.29797 | 27988 ft | 373 kts | 77° |
| 2026-04-22 18:44 | 47.76590 | 14.33547 | 27472 ft | 367 kts | 77° |
| 2026-04-22 18:44 | 47.77082 | 14.37254 | 26932 ft | 363 kts | 77° |
| 2026-04-22 18:44 | 47.77567 | 14.40927 | 26396 ft | 360 kts | 77° |
| 2026-04-22 18:45 | 47.78048 | 14.44565 | 25867 ft | 358 kts | 77° |
| 2026-04-22 18:45 | 47.78525 | 14.48180 | 25374 ft | 355 kts | 77° |
| 2026-04-22 18:45 | 47.78996 | 14.51758 | 24898 ft | 351 kts | 77° |
| 2026-04-22 18:45 | 47.79462 | 14.55304 | 24395 ft | 348 kts | 77° |
| 2026-04-22 18:46 | 47.79918 | 14.58775 | 23888 ft | 346 kts | 77° |
| 2026-04-22 18:46 | 47.80377 | 14.62274 | 23311 ft | 344 kts | 77° |
| 2026-04-22 18:46 | 47.80831 | 14.65751 | 22761 ft | 341 kts | 76° |
| 2026-04-22 18:46 | 47.81280 | 14.69203 | 22219 ft | 339 kts | 76° |
| 2026-04-22 18:47 | 47.81726 | 14.72642 | 21713 ft | 337 kts | 76° |
| 2026-04-22 18:47 | 47.82170 | 14.76053 | 21231 ft | 335 kts | 76° |
| 2026-04-22 18:47 | 47.82610 | 14.79443 | 20742 ft | 333 kts | 76° |
| 2026-04-22 18:47 | 47.83046 | 14.82815 | 20262 ft | 331 kts | 76° |
| 2026-04-22 18:48 | 47.83474 | 14.86171 | 19765 ft | 329 kts | 76° |
| 2026-04-22 18:48 | 47.83898 | 14.89508 | 19276 ft | 328 kts | 76° |
| 2026-04-22 18:48 | 47.84319 | 14.92826 | 18847 ft | 326 kts | 76° |
| 2026-04-22 18:48 | 47.84738 | 14.96128 | 18382 ft | 324 kts | 76° |
| 2026-04-22 18:49 | 47.85154 | 14.99414 | 17886 ft | 322 kts | 76° |
| 2026-04-22 18:49 | 47.85567 | 15.02678 | 17406 ft | 320 kts | 76° |
| 2026-04-22 18:49 | 47.85978 | 15.05933 | 17251 ft | 320 kts | 76° |
| 2026-04-22 18:49 | 47.86389 | 15.09198 | 17261 ft | 321 kts | 76° |
| 2026-04-22 18:50 | 47.86800 | 15.12461 | 17267 ft | 321 kts | 76° |
| 2026-04-22 18:50 | 47.87207 | 15.15704 | 17266 ft | 312 kts | 76° |
| 2026-04-22 18:50 | 47.87598 | 15.18819 | 17266 ft | 302 kts | 76° |
| 2026-04-22 18:50 | 47.87982 | 15.21882 | 17265 ft | 300 kts | 76° |
| 2026-04-22 18:51 | 47.88364 | 15.24930 | 17261 ft | 299 kts | 75° |
| 2026-04-22 18:51 | 47.88755 | 15.27971 | 17269 ft | 299 kts | 76° |
| 2026-04-22 18:51 | 47.89136 | 15.31018 | 17263 ft | 299 kts | 76° |
| 2026-04-22 18:51 | 47.89509 | 15.34063 | 17262 ft | 299 kts | 77° |
| 2026-04-22 18:52 | 47.89667 | 15.37168 | 17262 ft | 303 kts | 87° |
| 2026-04-22 18:52 | 47.89598 | 15.40311 | 17279 ft | 304 kts | 87° |
| 2026-04-22 18:52 | 47.89531 | 15.43455 | 17274 ft | 304 kts | 87° |
| 2026-04-22 18:52 | 47.89466 | 15.46598 | 17258 ft | 303 kts | 88° |
| 2026-04-22 18:53 | 47.89179 | 15.49727 | 17261 ft | 308 kts | 98° |
| 2026-04-22 18:53 | 47.88704 | 15.52834 | 17262 ft | 306 kts | 92° |
| 2026-04-22 18:53 | 47.88605 | 15.55975 | 17257 ft | 303 kts | 87° |
| 2026-04-22 18:53 | 47.88548 | 15.59110 | 17258 ft | 303 kts | 87° |
| 2026-04-22 18:54 | 47.88490 | 15.62251 | 17252 ft | 303 kts | 87° |
| 2026-04-22 18:54 | 47.88432 | 15.65389 | 17253 ft | 303 kts | 87° |
| 2026-04-22 18:54 | 47.88373 | 15.68529 | 17254 ft | 303 kts | 87° |
| 2026-04-22 18:54 | 47.88310 | 15.71666 | 17244 ft | 303 kts | 87° |
| 2026-04-22 18:55 | 47.88245 | 15.74781 | 16896 ft | 301 kts | 87° |
| 2026-04-22 18:55 | 47.88179 | 15.77896 | 16532 ft | 299 kts | 87° |
| 2026-04-22 18:55 | 47.88116 | 15.80988 | 16158 ft | 298 kts | 87° |
| 2026-04-22 18:55 | 47.88055 | 15.84064 | 15839 ft | 297 kts | 87° |
| 2026-04-22 18:56 | 47.87994 | 15.87129 | 15462 ft | 296 kts | 87° |
| 2026-04-22 18:56 | 47.87933 | 15.90188 | 15082 ft | 295 kts | 87° |
| 2026-04-22 18:56 | 47.87871 | 15.93237 | 14746 ft | 294 kts | 87° |
| 2026-04-22 18:56 | 47.87806 | 15.96273 | 14438 ft | 292 kts | 87° |
| 2026-04-22 18:57 | 47.87737 | 15.99291 | 14111 ft | 291 kts | 87° |
| 2026-04-22 18:57 | 47.87670 | 16.02297 | 13749 ft | 290 kts | 87° |
| 2026-04-22 18:57 | 47.87603 | 16.05290 | 13351 ft | 287 kts | 87° |
| 2026-04-22 18:57 | 47.87535 | 16.08262 | 12933 ft | 287 kts | 87° |
| 2026-04-22 18:58 | 47.87469 | 16.11229 | 12524 ft | 286 kts | 87° |
| 2026-04-22 18:58 | 47.87402 | 16.14183 | 12116 ft | 285 kts | 87° |
| 2026-04-22 18:58 | 47.87334 | 16.17130 | 11736 ft | 285 kts | 87° |
| 2026-04-22 18:58 | 47.87264 | 16.20075 | 11356 ft | 284 kts | 87° |
| 2026-04-22 18:59 | 47.87195 | 16.23003 | 11208 ft | 282 kts | 87° |
| 2026-04-22 18:59 | 47.87126 | 16.25920 | 10851 ft | 282 kts | 88° |
| 2026-04-22 18:59 | 47.87056 | 16.28832 | 10462 ft | 282 kts | 88° |
| 2026-04-22 18:59 | 47.86984 | 16.31746 | 10077 ft | 281 kts | 88° |
| 2026-04-22 19:00 | 47.86937 | 16.33672 | 9797 ft | 281 kts | 88° |
| 2026-04-22 19:00 | 47.86838 | 16.37545 | 9250 ft | 279 kts | 88° |
| 2026-04-22 19:00 | 47.86765 | 16.40430 | 8853 ft | 278 kts | 88° |
| 2026-04-22 19:00 | 47.86691 | 16.43293 | 8453 ft | 276 kts | 88° |
| 2026-04-22 19:01 | 47.86617 | 16.46141 | 8078 ft | 274 kts | 87° |
| 2026-04-22 19:01 | 47.86541 | 16.48968 | 7817 ft | 273 kts | 87° |
| 2026-04-22 19:01 | 47.86464 | 16.51789 | 7410 ft | 271 kts | 88° |
| 2026-04-22 19:01 | 47.86387 | 16.54527 | 7277 ft | 259 kts | 87° |
| 2026-04-22 19:02 | 47.86314 | 16.57138 | 7149 ft | 246 kts | 87° |
| 2026-04-22 19:02 | 47.86244 | 16.59647 | 6954 ft | 240 kts | 87° |
| 2026-04-22 19:02 | 47.86210 | 16.62112 | 6659 ft | 236 kts | 82° |
| 2026-04-22 19:02 | 47.86398 | 16.64515 | 6339 ft | 232 kts | 73° |
| 2026-04-22 19:03 | 47.86818 | 16.66817 | 6013 ft | 229 kts | 65° |
| 2026-04-22 19:03 | 47.87344 | 16.69048 | 5696 ft | 228 kts | 66° |
| 2026-04-22 19:03 | 47.87861 | 16.71280 | 5384 ft | 227 kts | 66° |
| 2026-04-22 19:03 | 47.88372 | 16.73496 | 5079 ft | 226 kts | 66° |
| 2026-04-22 19:04 | 47.88876 | 16.75680 | 4767 ft | 225 kts | 66° |
| 2026-04-22 19:04 | 47.89384 | 16.77885 | 4447 ft | 225 kts | 66° |
| 2026-04-22 19:04 | 47.89861 | 16.80094 | 4144 ft | 225 kts | 70° |
| 2026-04-22 19:04 | 47.90150 | 16.82398 | 4019 ft | 226 kts | 75° |
| 2026-04-22 19:05 | 47.90417 | 16.84711 | 4023 ft | 227 kts | 75° |
| 2026-04-22 19:05 | 47.90687 | 16.87018 | 4020 ft | 221 kts | 73° |
| 2026-04-22 19:05 | 47.91263 | 16.88971 | 4014 ft | 198 kts | 42° |
| 2026-04-22 19:05 | 47.92354 | 16.90184 | 4015 ft | 192 kts | 27° |
| 2026-04-22 19:06 | 47.93494 | 16.91155 | 4015 ft | 191 kts | 26° |
| 2026-04-22 19:06 | 47.94720 | 16.91833 | 4014 ft | 188 kts | 1° |
| 2026-04-22 19:06 | 47.95975 | 16.91290 | 4017 ft | 190 kts | 331° |
| 2026-04-22 19:07 | 47.98110 | 16.88964 | 4014 ft | 192 kts | 326° |
| 2026-04-22 19:07 | 47.99179 | 16.87727 | 4014 ft | 192 kts | 326° |
| 2026-04-22 19:07 | 48.00233 | 16.86507 | 4031 ft | 192 kts | 326° |
| 2026-04-22 19:07 | 48.01288 | 16.85284 | 4032 ft | 192 kts | 326° |
| 2026-04-22 19:08 | 48.02250 | 16.83901 | 4033 ft | 196 kts | 306° |
| 2026-04-22 19:08 | 48.02878 | 16.82067 | 4034 ft | 199 kts | 301° |
| 2026-04-22 19:08 | 48.03469 | 16.80246 | 3926 ft | 190 kts | 301° |
| 2026-04-22 19:08 | 48.04038 | 16.78511 | 3712 ft | 184 kts | 302° |
| 2026-04-22 19:09 | 48.04598 | 16.76808 | 3476 ft | 182 kts | 302° |
| 2026-04-22 19:09 | 48.05153 | 16.75122 | 3228 ft | 179 kts | 302° |
| 2026-04-22 19:09 | 48.05510 | 16.74031 | 3076 ft | 173 kts | 302° |
| 2026-04-22 19:09 | 48.06186 | 16.71967 | 2774 ft | 159 kts | 303° |
| 2026-04-22 19:10 | 48.06660 | 16.70527 | 2567 ft | 153 kts | 303° |
| 2026-04-22 19:10 | 48.07135 | 16.69081 | 2367 ft | 151 kts | 303° |
| 2026-04-22 19:10 | 48.07565 | 16.67761 | 2156 ft | 134 kts | 304° |
| 2026-04-22 19:10 | 48.07958 | 16.66565 | 1982 ft | 127 kts | 304° |
| 2026-04-22 19:11 | 48.08349 | 16.65373 | 1813 ft | 125 kts | 303° |
| 2026-04-22 19:11 | 48.08602 | 16.64603 | 1705 ft | 124 kts | 303° |
| 2026-04-22 19:11 | 48.09109 | 16.63054 | 1470 ft | 123 kts | 302° |
| 2026-04-22 19:11 | 48.09489 | 16.61895 | 1300 ft | 125 kts | 300° |
| 2026-04-22 19:12 | 48.09742 | 16.61121 | 1174 ft | 126 kts | 299° |
| 2026-04-22 19:12 | 48.10236 | 16.59550 | 947 ft | 126 kts | 297° |
| 2026-04-22 19:12 | 48.10618 | 16.58379 | 776 ft | 125 kts | 299° |
| 2026-04-22 19:12 | 48.11013 | 16.57224 | 629 ft | 124 kts | 298° |
| 2026-04-22 19:13 | 48.11340 | 16.56227 | 613 ft | 83 kts | 296° |
| 2026-04-22 19:13 | 48.11524 | 16.55662 | 614 ft | 33 kts | 296° |
| 2026-04-22 19:13 | 48.11576 | 16.55508 | 619 ft | 22 kts | 300° |
| 2026-04-22 19:13 | 48.11669 | 16.55333 | 617 ft | 20 kts | 316° |
| 2026-04-22 19:14 | 48.11756 | 16.55207 | 617 ft | 12 kts | 316° |
| 2026-04-22 19:14 | 48.11815 | 16.55146 | 609 ft | 10 kts | 344° |
| 2026-04-22 19:14 | 48.11881 | 16.55165 | 618 ft | 11 kts | 57° |
| 2026-04-22 19:14 | 48.11865 | 16.55261 | 613 ft | 9 kts | 116° |
| 2026-04-22 19:15 | 48.11837 | 16.55347 | 617 ft | 9 kts | 116° |
| 2026-04-22 19:15 | 48.11811 | 16.55429 | 625 ft | 9 kts | 116° |
| 2026-04-22 19:15 | 48.11785 | 16.55506 | 614 ft | 8 kts | 116° |
| 2026-04-22 19:15 | 48.11756 | 16.55597 | 619 ft | 10 kts | 116° |
| 2026-04-22 19:16 | 48.11726 | 16.55689 | 614 ft | 10 kts | 116° |
| 2026-04-22 19:16 | 48.11691 | 16.55796 | 612 ft | 11 kts | 116° |
| 2026-04-22 19:16 | 48.11657 | 16.55901 | 621 ft | 11 kts | 116° |
| 2026-04-22 19:16 | 48.11625 | 16.55999 | 614 ft | 11 kts | 116° |
| 2026-04-22 19:17 | 48.11574 | 16.56155 | 614 ft | 21 kts | 116° |
| 2026-04-22 19:17 | 48.11513 | 16.56342 | 620 ft | 18 kts | 116° |
| 2026-04-22 19:17 | 48.11489 | 16.56416 | 609 ft | 6 kts | 116° |
| 2026-04-22 19:17 | 48.11472 | 16.56468 | 618 ft | 7 kts | 116° |
| 2026-04-22 19:18 | 48.11453 | 16.56528 | 625 ft | 6 kts | 116° |
| 2026-04-22 19:18 | 48.11434 | 16.56584 | 614 ft | 7 kts | 116° |
| 2026-04-22 19:18 | 48.11405 | 16.56675 | 617 ft | 11 kts | 116° |
| 2026-04-22 19:18 | 48.11379 | 16.56773 | 613 ft | 10 kts | 91° |
| 2026-04-22 19:19 | 48.11421 | 16.56838 | 612 ft | 11 kts | 26° |
| 2026-04-22 19:19 | 48.11497 | 16.56894 | 615 ft | 13 kts | 26° |
| 2026-04-22 19:19 | 48.11583 | 16.56893 | 618 ft | 14 kts | 317° |
| 2026-04-22 19:19 | 48.11634 | 16.56748 | 615 ft | 17 kts | 296° |
| 2026-04-22 19:20 | 48.11651 | 16.56703 | 621 ft | 4 kts | 308° |
| 2026-04-22 19:20 | 48.11686 | 16.56707 | 616 ft | 5 kts | 24° |
| 2026-04-22 19:20 | 48.11719 | 16.56730 | 609 ft | 3 kts | 26° |
| 2026-04-22 19:20 | 48.11726 | 16.56736 | 609 ft | 0 kts | 26° |
| 2026-04-22 19:21 | 48.11729 | 16.56738 | 609 ft | 0 kts | 26° |